Time;durP1;ratioP1;P1;durP2;ratioP2;P2;SDS_P1;SDS_P2;PMS_P1;PMS_P2;Temp;Humidity;BMP_temperature;BMP_pressure;BME280_temperature;BME280_humidity;BME280_pressure;Samples;Min_cycle;Max_cycle;Signal;HPM_P1;HPM_P2
2021/04/25 00:02:22;;;;;;;11.85;5.90;;;5.60;64.60;;;;;;5099940;28;20016;-36
2021/04/25 00:04:48;;;;;;;12.32;4.93;;;5.50;64.60;;;;;;5099856;28;20023;-35
2021/04/25 00:07:14;;;;;;;8.10;4.95;;;5.50;64.50;;;;;;5099711;28;20093;-35
2021/04/25 00:09:40;;;;;;;12.57;5.07;;;5.60;64.70;;;;;;5100116;28;20107;-34
2021/04/25 00:12:06;;;;;;;11.50;4.90;;;5.50;64.80;;;;;;5099684;28;20116;-34
2021/04/25 00:14:32;;;;;;;7.78;4.18;;;5.60;64.80;;;;;;5097056;28;20480;-36
2021/04/25 00:16:58;;;;;;;9.55;3.80;;;5.70;64.20;;;;;;5096456;28;20020;-35
2021/04/25 00:19:24;;;;;;;9.98;4.68;;;5.70;63.90;;;;;;5096334;28;20433;-35
2021/04/25 00:21:50;;;;;;;13.75;5.35;;;5.70;64.50;;;;;;5095113;28;20168;-35
2021/04/25 00:24:16;;;;;;;10.50;4.75;;;5.60;64.50;;;;;;5096369;28;20020;-42
2021/04/25 00:26:42;;;;;;;11.73;4.68;;;5.50;65.00;;;;;;5096091;28;20408;-35
2021/04/25 00:29:08;;;;;;;8.07;4.97;;;5.50;65.00;;;;;;5096457;28;20028;-35
2021/04/25 00:31:33;;;;;;;10.90;5.32;;;5.60;65.10;;;;;;5096324;28;20032;-35
2021/04/25 00:34:00;;;;;;;9.60;5.07;;;5.60;64.80;;;;;;5096470;28;20028;-36
2021/04/25 00:36:25;;;;;;;10.65;5.00;;;5.40;65.30;;;;;;5096319;28;20052;-36
2021/04/25 00:38:52;;;;;;;12.00;5.47;;;5.40;65.30;;;;;;5095831;28;20028;-36
2021/04/25 00:41:18;;;;;;;8.55;4.43;;;5.40;65.60;;;;;;5096250;28;20503;-36
2021/04/25 00:43:44;;;;;;;14.73;5.90;;;5.40;65.30;;;;;;5094495;28;20020;-35
2021/04/25 00:46:09;;;;;;;16.23;5.35;;;5.40;65.50;;;;;;5096163;28;20475;-35
2021/04/25 00:48:35;;;;;;;8.48;4.85;;;5.40;65.60;;;;;;5094348;28;20048;-36
2021/04/25 00:51:01;;;;;;;7.10;4.53;;;5.30;66.00;;;;;;5095881;28;20035;-35
2021/04/25 00:53:26;;;;;;;9.95;5.15;;;5.40;65.80;;;;;;5095563;28;20101;-36
2021/04/25 00:55:53;;;;;;;11.25;5.53;;;5.30;65.90;;;;;;5095519;28;20028;-36
2021/04/25 00:58:19;;;;;;;11.77;4.85;;;5.30;66.10;;;;;;5095405;28;20472;-36
2021/04/25 01:00:46;;;;;;;11.35;5.60;;;5.20;66.50;;;;;;5095408;28;20073;-35
2021/04/25 01:03:11;;;;;;;12.00;4.53;;;5.20;66.70;;;;;;5095644;28;20097;-36
2021/04/25 01:05:37;;;;;;;11.65;5.82;;;5.00;67.10;;;;;;5095732;28;20111;-36
2021/04/25 01:08:04;;;;;;;11.57;5.15;;;5.00;67.20;;;;;;5095045;28;20036;-36
2021/04/25 01:10:30;;;;;;;10.38;5.32;;;5.10;67.10;;;;;;5094210;28;20422;-36
2021/04/25 01:12:58;;;;;;;18.77;7.05;;;4.90;67.30;;;;;;5095465;28;20024;-36
2021/04/25 01:15:24;;;;;;;9.63;5.05;;;4.90;67.90;;;;;;5095341;28;20020;-36
2021/04/25 01:17:50;;;;;;;10.05;5.57;;;4.80;68.10;;;;;;5095045;28;20030;-36
2021/04/25 01:20:18;;;;;;;11.90;5.47;;;4.80;68.20;;;;;;5095281;28;20065;-36
2021/04/25 01:22:45;;;;;;;12.43;5.38;;;4.80;68.00;;;;;;5094887;28;20047;-36
2021/04/25 01:25:13;;;;;;;17.60;7.50;;;4.90;68.10;;;;;;5094992;28;20360;-36
2021/04/25 01:27:39;;;;;;;10.10;4.43;;;4.80;68.20;;;;;;5093527;28;20024;-36
2021/04/25 01:30:08;;;;;;;11.27;5.15;;;4.80;68.90;;;;;;5094814;28;20028;-36
2021/04/25 01:32:34;;;;;;;11.68;5.55;;;4.80;69.10;;;;;;5094743;28;20028;-36
2021/04/25 01:35:01;;;;;;;12.82;6.57;;;4.70;69.00;;;;;;5094622;28;20107;-36
2021/04/25 01:37:26;;;;;;;10.95;6.07;;;4.50;69.70;;;;;;5094685;28;20020;-36
2021/04/25 01:39:52;;;;;;;9.82;5.53;;;4.60;70.00;;;;;;5094453;28;20077;-36
2021/04/25 01:42:18;;;;;;;9.85;4.50;;;4.60;69.90;;;;;;5093171;28;20020;-36
2021/04/25 01:44:44;;;;;;;13.90;5.13;;;4.80;69.80;;;;;;5094400;28;20055;-36
2021/04/25 01:47:10;;;;;;;21.38;8.18;;;4.80;69.30;;;;;;5093453;28;20547;-36
2021/04/25 01:49:35;;;;;;;15.48;5.30;;;4.80;69.00;;;;;;5094192;28;20075;-34
2021/04/25 01:52:03;;;;;;;10.65;5.53;;;4.80;69.40;;;;;;5094593;28;20414;-36
2021/04/25 01:54:28;;;;;;;16.80;5.38;;;4.80;69.40;;;;;;5094402;28;20115;-36
2021/04/25 01:56:54;;;;;;;14.48;6.13;;;4.70;69.60;;;;;;5094151;28;20183;-34
2021/04/25 01:59:20;;;;;;;12.13;5.47;;;4.60;70.00;;;;;;5094369;28;20020;-34
2021/04/25 02:01:46;;;;;;;12.40;6.28;;;4.60;70.10;;;;;;5094344;28;20020;-34
2021/04/25 02:04:13;;;;;;;15.18;5.80;;;4.70;69.90;;;;;;5094100;28;20503;-34
2021/04/25 02:06:42;;;;;;;11.60;6.47;;;4.70;69.90;;;;;;5094094;28;20016;-34
2021/04/25 02:09:07;;;;;;;16.27;6.50;;;4.80;69.70;;;;;;5094564;28;20053;-35
2021/04/25 02:11:33;;;;;;;10.05;5.32;;;4.80;69.60;;;;;;5093944;28;20023;-35
2021/04/25 02:13:59;;;;;;;15.50;6.15;;;4.80;69.60;;;;;;5093995;28;20035;-35
2021/04/25 02:16:24;;;;;;;24.45;7.03;;;4.80;69.50;;;;;;5094282;28;20020;-35
2021/04/25 02:18:50;;;;;;;16.83;5.70;;;4.90;69.50;;;;;;5094151;28;20035;-35
2021/04/25 02:21:16;;;;;;;13.68;5.93;;;4.90;69.40;;;;;;5092597;28;20027;-35
2021/04/25 02:23:41;;;;;;;17.20;6.95;;;4.80;69.50;;;;;;5093813;28;20039;-35
2021/04/25 02:26:07;;;;;;;20.13;7.00;;;4.80;69.80;;;;;;5093648;28;20563;-35
2021/04/25 02:28:33;;;;;;;13.27;6.15;;;4.80;70.00;;;;;;5093633;28;20035;-35
2021/04/25 02:30:58;;;;;;;10.35;5.65;;;4.80;70.10;;;;;;5093679;28;20052;-35
2021/04/25 02:33:24;;;;;;;14.50;6.05;;;4.80;70.10;;;;;;5093847;28;20039;-36
2021/04/25 02:35:50;;;;;;;15.02;6.18;;;4.80;70.00;;;;;;5093647;28;20384;-36
2021/04/25 02:38:15;;;;;;;10.80;6.13;;;4.80;70.10;;;;;;5093166;28;20063;-36
2021/04/25 02:40:41;;;;;;;14.43;6.53;;;4.80;70.00;;;;;;5093592;28;20032;-36
2021/04/25 02:43:07;;;;;;;13.70;6.32;;;4.80;70.10;;;;;;5093527;28;20020;-36
2021/04/25 02:45:34;;;;;;;14.98;7.43;;;4.80;70.00;;;;;;5093469;28;20020;-36
2021/04/25 02:48:05;;;;;;;14.38;7.95;;;4.90;69.70;;;;;;5093706;28;20130;-36
2021/04/25 02:50:38;;;;;;;15.27;6.70;;;4.80;70.00;;;;;;5094180;28;20036;-36
2021/04/25 02:53:06;;;;;;;15.82;8.10;;;4.90;69.80;;;;;;5093616;28;20024;-36
2021/04/25 02:55:32;;;;;;;13.75;6.57;;;4.80;69.70;;;;;;5093242;28;20020;-36
2021/04/25 02:57:58;;;;;;;17.45;7.45;;;4.80;69.90;;;;;;5092019;28;20065;-36
2021/04/25 03:00:26;;;;;;;13.68;6.22;;;4.80;70.00;;;;;;5093578;28;20020;-36
2021/04/25 03:02:51;;;;;;;16.17;7.65;;;4.80;70.00;;;;;;5093753;28;20031;-36
2021/04/25 03:05:18;;;;;;;16.92;7.53;;;4.80;69.80;;;;;;5093325;28;20028;-36
2021/04/25 03:07:46;;;;;;;12.77;6.00;;;4.90;69.50;;;;;;5093209;28;20549;-36
2021/04/25 03:10:14;;;;;;;12.27;6.30;;;4.90;69.40;;;;;;5093166;28;20028;-36
2021/04/25 03:12:40;;;;;;;25.73;10.00;;;4.90;69.30;;;;;;5093137;28;20552;-36
2021/04/25 03:15:08;;;;;;;12.57;6.70;;;4.80;69.20;;;;;;5091960;28;20020;-36
2021/04/25 03:17:34;;;;;;;10.95;6.10;;;4.90;69.10;;;;;;5093071;28;20089;-36
2021/04/25 03:19:59;;;;;;;14.02;6.68;;;4.80;69.20;;;;;;5093102;28;20488;-36
2021/04/25 03:22:25;;;;;;;17.55;8.40;;;4.80;69.70;;;;;;5093066;28;20029;-36
2021/04/25 03:24:50;;;;;;;17.00;6.47;;;4.70;69.80;;;;;;5093324;28;20450;-36
2021/04/25 03:27:16;;;;;;;17.38;7.32;;;4.80;69.70;;;;;;5092939;28;20073;-36
2021/04/25 03:29:42;;;;;;;11.15;5.10;;;4.80;69.20;;;;;;5093296;28;20434;-36
2021/04/25 03:32:07;;;;;;;9.30;5.40;;;4.80;69.30;;;;;;5092957;28;20024;-36
2021/04/25 03:34:33;;;;;;;12.60;5.97;;;4.60;70.10;;;;;;5093181;28;20032;-36
2021/04/25 03:36:59;;;;;;;17.40;6.47;;;4.60;70.10;;;;;;5093017;28;20388;-36
2021/04/25 03:39:24;;;;;;;12.02;6.65;;;4.70;69.90;;;;;;5092789;28;20027;-36
2021/04/25 03:41:50;;;;;;;13.20;6.03;;;4.50;70.30;;;;;;5092933;28;20025;-36
2021/04/25 03:44:16;;;;;;;12.95;6.20;;;4.50;70.40;;;;;;5092944;28;20415;-36
2021/04/25 03:46:42;;;;;;;17.55;6.88;;;4.50;70.40;;;;;;5091591;28;20050;-36
2021/04/25 03:49:08;;;;;;;13.77;6.47;;;4.50;70.50;;;;;;5092798;28;20117;-36
2021/04/25 03:51:34;;;;;;;12.13;6.18;;;4.50;70.20;;;;;;5096634;28;20024;-36
2021/04/25 03:54:00;;;;;;;14.15;6.40;;;4.50;70.20;;;;;;5096831;28;20058;-36
2021/04/25 03:56:25;;;;;;;11.00;5.90;;;4.50;70.20;;;;;;5096593;28;20356;-36
2021/04/25 03:58:51;;;;;;;11.98;5.82;;;4.50;70.50;;;;;;5096340;28;20024;-35
2021/04/25 04:01:17;;;;;;;16.83;7.50;;;4.50;70.10;;;;;;5096353;28;20027;-36
2021/04/25 04:03:43;;;;;;;13.27;6.65;;;4.60;70.00;;;;;;5096617;28;20025;-35
2021/04/25 04:06:09;;;;;;;9.13;5.20;;;4.50;69.90;;;;;;5096632;28;20072;-36
2021/04/25 04:08:34;;;;;;;15.25;7.00;;;4.60;69.90;;;;;;5097174;28;20067;-36
2021/04/25 04:11:00;;;;;;;15.70;6.47;;;4.60;70.00;;;;;;5096668;28;20020;-35
2021/04/25 04:13:25;;;;;;;10.20;5.43;;;4.80;69.20;;;;;;5096252;28;20023;-36
2021/04/25 04:15:51;;;;;;;12.98;6.97;;;4.80;69.00;;;;;;5096149;28;20157;-35
2021/04/25 04:18:17;;;;;;;10.82;5.20;;;4.70;69.00;;;;;;5096064;28;20126;-36
2021/04/25 04:20:42;;;;;;;16.17;6.15;;;4.60;69.40;;;;;;5096081;28;20027;-36
2021/04/25 04:23:08;;;;;;;13.88;6.90;;;4.70;69.30;;;;;;5096072;28;20038;-36
2021/04/25 04:25:33;;;;;;;11.63;5.10;;;4.60;69.60;;;;;;5096207;28;20016;-36
2021/04/25 04:27:59;;;;;;;18.48;6.97;;;4.50;69.70;;;;;;5095951;28;20024;-36
2021/04/25 04:30:26;;;;;;;12.27;5.65;;;4.60;69.00;;;;;;5095959;28;20069;-36
2021/04/25 04:32:51;;;;;;;9.88;5.43;;;4.70;68.40;;;;;;5096234;28;20467;-35
2021/04/25 04:35:17;;;;;;;13.13;5.95;;;4.80;68.10;;;;;;5095908;28;20024;-36
2021/04/25 04:37:43;;;;;;;8.00;5.55;;;4.80;67.60;;;;;;5095758;28;20495;-36
2021/04/25 04:40:09;;;;;;;9.10;4.40;;;4.80;67.50;;;;;;5095864;28;20111;-36
2021/04/25 04:42:35;;;;;;;9.95;4.85;;;4.90;66.00;;;;;;5095831;28;20028;-36
2021/04/25 04:45:00;;;;;;;14.82;5.40;;;5.10;65.10;;;;;;5095517;28;20053;-36
2021/04/25 04:47:26;;;;;;;13.07;5.25;;;5.10;65.70;;;;;;5095534;28;20150;-35
2021/04/25 04:49:51;;;;;;;11.45;5.88;;;4.90;66.40;;;;;;5095444;28;20097;-36
2021/04/25 04:52:18;;;;;;;10.40;4.30;;;4.90;66.50;;;;;;5095456;28;20063;-36
2021/04/25 04:54:45;;;;;;;14.20;5.85;;;5.00;66.10;;;;;;5096026;28;20032;-36
2021/04/25 04:57:12;;;;;;;10.40;4.85;;;5.10;65.40;;;;;;5095687;28;20027;-36
2021/04/25 04:59:38;;;;;;;13.88;5.50;;;5.00;65.70;;;;;;5095498;28;20516;-36
2021/04/25 05:02:03;;;;;;;10.73;5.43;;;5.20;65.00;;;;;;5094986;28;20020;-36
2021/04/25 05:04:29;;;;;;;10.93;5.10;;;5.00;65.10;;;;;;5095153;28;20095;-36
2021/04/25 05:06:54;;;;;;;12.55;4.63;;;5.20;64.90;;;;;;5095200;28;20024;-36
2021/04/25 05:09:20;;;;;;;6.68;4.07;;;5.10;64.00;;;;;;5095664;28;20029;-36
2021/04/25 05:11:46;;;;;;;7.38;4.38;;;5.20;64.20;;;;;;5095251;28;20024;-35
2021/04/25 05:14:11;;;;;;;9.63;4.72;;;5.30;63.30;;;;;;5095044;28;20468;-36
2021/04/25 05:16:37;;;;;;;11.68;4.80;;;5.20;63.50;;;;;;5094960;28;20035;-36
2021/04/25 05:19:03;;;;;;;12.90;5.38;;;5.30;63.40;;;;;;5094901;28;20491;-36
2021/04/25 05:21:28;;;;;;;7.88;4.07;;;5.40;63.40;;;;;;5094813;28;20028;-36
2021/04/25 05:23:54;;;;;;;7.40;4.25;;;5.30;63.50;;;;;;5094937;28;20417;-35
2021/04/25 05:26:20;;;;;;;10.63;4.10;;;5.30;61.50;;;;;;5093313;28;20416;-35
2021/04/25 05:28:45;;;;;;;9.02;4.10;;;5.30;61.30;;;;;;5094931;28;20028;-36
2021/04/25 05:31:11;;;;;;;13.10;4.32;;;5.30;61.30;;;;;;5094773;28;20452;-36
2021/04/25 05:33:37;;;;;;;10.90;3.90;;;5.30;61.60;;;;;;5095153;28;20028;-36
2021/04/25 05:36:03;;;;;;;6.50;3.53;;;5.40;61.60;;;;;;5093604;28;20024;-36
2021/04/25 05:38:28;;;;;;;17.42;3.75;;;5.50;61.50;;;;;;5094475;28;20031;-36
2021/04/25 05:40:54;;;;;;;7.18;3.67;;;5.50;61.60;;;;;;5093222;28;20024;-36
2021/04/25 05:43:20;;;;;;;10.27;4.68;;;5.60;61.50;;;;;;5094469;28;20031;-36
2021/04/25 05:45:45;;;;;;;13.20;4.65;;;5.70;60.80;;;;;;5094847;28;20027;-36
2021/04/25 05:48:11;;;;;;;11.85;4.82;;;5.70;61.30;;;;;;5094147;28;20031;-36
2021/04/25 05:50:37;;;;;;;17.65;4.85;;;5.50;61.70;;;;;;5094236;28;20097;-36
2021/04/25 05:53:02;;;;;;;8.98;4.00;;;5.50;61.90;;;;;;5094196;28;20069;-36
2021/04/25 05:55:28;;;;;;;8.63;4.47;;;5.60;61.90;;;;;;5094100;28;20036;-36
2021/04/25 05:57:54;;;;;;;7.65;3.45;;;5.40;61.40;;;;;;5094136;28;20024;-36
2021/04/25 06:00:25;;;;;;;9.52;4.13;;;5.60;60.90;;;;;;5092834;28;20020;-36
2021/04/25 06:02:53;;;;;;;22.80;4.25;;;5.60;60.30;;;;;;5094333;28;20031;-36
2021/04/25 06:05:19;;;;;;;6.90;3.42;;;5.60;59.70;;;;;;5094074;28;20107;-36
2021/04/25 06:07:45;;;;;;;5.65;3.10;;;5.60;58.70;;;;;;5094027;28;20020;-36
2021/04/25 06:10:12;;;;;;;9.50;3.53;;;5.40;57.90;;;;;;5094260;28;20467;-36
2021/04/25 06:12:38;;;;;;;5.28;2.65;;;5.50;57.50;;;;;;5093316;28;20023;-36
2021/04/25 06:15:05;;;;;;;5.85;2.78;;;5.50;57.00;;;;;;5094090;28;20054;-36
2021/04/25 06:17:31;;;;;;;8.52;3.15;;;5.60;56.70;;;;;;5093743;28;20133;-36
2021/04/25 06:19:56;;;;;;;10.48;3.67;;;5.60;56.20;;;;;;5093935;28;20028;-36
2021/04/25 06:22:22;;;;;;;5.57;2.83;;;5.60;56.80;;;;;;5093998;28;20027;-36
2021/04/25 06:24:53;;;;;;;7.32;4.03;;;5.40;57.20;;;;;;5093573;28;20047;-36
2021/04/25 06:27:19;;;;;;;5.85;2.47;;;5.70;56.90;;;;;;5092136;28;20035;-36
2021/04/25 06:29:45;;;;;;;4.15;3.10;;;5.70;56.70;;;;;;5093989;28;20388;-36
2021/04/25 06:32:10;;;;;;;11.05;2.80;;;5.80;56.50;;;;;;5093436;28;20024;-36
2021/04/25 06:34:36;;;;;;;15.85;2.75;;;5.80;56.80;;;;;;5093563;28;20024;-36
2021/04/25 06:37:02;;;;;;;8.98;3.28;;;5.80;56.80;;;;;;5093856;28;20422;-36
2021/04/25 06:39:27;;;;;;;18.15;3.08;;;5.80;57.10;;;;;;5093965;28;20016;-35
2021/04/25 06:41:53;;;;;;;4.28;2.55;;;5.90;57.10;;;;;;5092061;28;20024;-35
2021/04/25 06:44:18;;;;;;;9.88;2.95;;;6.00;56.80;;;;;;5093584;28;20024;-36
2021/04/25 06:46:44;;;;;;;12.88;4.22;;;5.80;56.80;;;;;;5093543;28;20028;-36
2021/04/25 06:49:10;;;;;;;9.43;2.92;;;5.70;57.00;;;;;;5093266;28;20061;-36
2021/04/25 06:51:35;;;;;;;4.07;2.60;;;5.80;56.70;;;;;;5093241;28;20543;-36
2021/04/25 06:54:01;;;;;;;7.75;3.20;;;5.80;55.90;;;;;;5093214;28;20024;-36
2021/04/25 06:56:27;;;;;;;5.25;2.97;;;5.80;56.00;;;;;;5091921;28;20055;-36
2021/04/25 06:58:52;;;;;;;9.55;2.90;;;5.90;56.50;;;;;;5093168;28;20020;-36
2021/04/25 07:01:18;;;;;;;5.22;2.10;;;6.00;56.30;;;;;;5093161;28;20375;-36
2021/04/25 07:03:44;;;;;;;5.55;2.50;;;6.00;55.50;;;;;;5094193;28;20341;-36
2021/04/25 07:06:09;;;;;;;6.78;2.50;;;6.10;55.30;;;;;;5093214;28;20538;-36
2021/04/25 07:08:35;;;;;;;8.02;2.40;;;6.00;55.60;;;;;;5093432;28;20528;-36
2021/04/25 07:11:00;;;;;;;5.65;2.83;;;5.90;56.00;;;;;;5093222;28;20136;-36
2021/04/25 07:13:27;;;;;;;6.05;1.98;;;5.90;56.00;;;;;;5093139;28;20046;-36
2021/04/25 07:15:53;;;;;;;4.97;1.88;;;6.00;56.10;;;;;;5093279;28;20463;-36
2021/04/25 07:18:19;;;;;;;4.90;1.63;;;6.20;55.30;;;;;;5092977;28;20052;-36
2021/04/25 07:20:44;;;;;;;4.50;2.30;;;6.10;55.20;;;;;;5093249;28;20020;-36
2021/04/25 07:23:10;;;;;;;3.85;2.58;;;6.10;55.30;;;;;;5093310;28;20054;-36
2021/04/25 07:25:36;;;;;;;5.03;2.13;;;6.50;54.20;;;;;;5097069;28;20100;-37
2021/04/25 07:28:02;;;;;;;4.90;1.88;;;6.70;53.50;;;;;;5096164;28;20020;-36
2021/04/25 07:30:28;;;;;;;10.63;2.90;;;6.40;53.70;;;;;;5097814;28;20023;-36
2021/04/25 07:32:54;;;;;;;8.30;3.05;;;6.30;54.30;;;;;;5097259;28;20376;-37
2021/04/25 07:35:20;;;;;;;2.85;1.60;;;6.30;54.50;;;;;;5096973;28;20440;-36
2021/04/25 07:37:47;;;;;;;1.98;1.63;;;6.60;53.70;;;;;;5096832;28;20099;-36
2021/04/25 07:40:13;;;;;;;5.70;2.00;;;6.80;52.80;;;;;;5097063;28;20024;-36
2021/04/25 07:42:40;;;;;;;2.35;1.77;;;6.30;53.90;;;;;;5097128;28;20028;-37
2021/04/25 07:45:08;;;;;;;8.57;3.08;;;6.50;54.10;;;;;;5095355;28;20051;-36
2021/04/25 07:47:34;;;;;;;7.75;2.20;;;6.50;53.60;;;;;;5096092;28;20042;-37
2021/04/25 07:50:00;;;;;;;4.38;2.20;;;6.70;53.40;;;;;;5095266;28;20092;-36
2021/04/25 07:52:26;;;;;;;5.15;1.85;;;7.10;51.90;;;;;;5096475;28;20102;-36
2021/04/25 07:54:52;;;;;;;9.07;2.35;;;6.80;52.20;;;;;;5096442;28;20107;-35
2021/04/25 07:57:18;;;;;;;5.75;2.28;;;6.50;53.30;;;;;;5096462;28;20062;-35
2021/04/25 07:59:44;;;;;;;2.92;1.95;;;6.80;52.70;;;;;;5096584;28;20020;-36
2021/04/25 08:02:09;;;;;;;4.75;1.75;;;6.80;52.50;;;;;;5096530;28;20024;-36
2021/04/25 08:04:35;;;;;;;7.05;2.35;;;6.60;53.00;;;;;;5096533;28;20027;-37
2021/04/25 08:07:01;;;;;;;3.67;2.60;;;6.40;53.70;;;;;;5096457;28;20102;-37
2021/04/25 08:09:26;;;;;;;3.67;1.92;;;6.90;52.70;;;;;;5096460;28;20208;-37
2021/04/25 08:11:54;;;;;;;6.32;1.95;;;7.90;50.30;;;;;;5096392;28;20108;-37
2021/04/25 08:14:20;;;;;;;5.65;1.95;;;8.00;49.10;;;;;;5096351;28;20503;-37
2021/04/25 08:16:46;;;;;;;5.32;1.95;;;7.80;50.30;;;;;;5096651;28;20027;-37
2021/04/25 08:19:11;;;;;;;5.50;1.95;;;8.00;49.30;;;;;;5096250;28;20058;-36
2021/04/25 08:21:37;;;;;;;7.30;2.38;;;8.30;48.60;;;;;;5096198;28;20026;-35
2021/04/25 08:24:03;;;;;;;7.65;2.60;;;8.50;47.70;;;;;;5095845;28;20050;-36
2021/04/25 08:26:29;;;;;;;6.65;1.63;;;9.40;45.70;;;;;;5096285;28;20057;-36
2021/04/25 08:28:54;;;;;;;3.58;1.83;;;9.70;44.80;;;;;;5096352;28;20020;-37
2021/04/25 08:31:20;;;;;;;6.15;1.67;;;10.30;43.10;;;;;;5096237;28;20031;-37
2021/04/25 08:33:46;;;;;;;6.50;1.40;;;10.20;43.50;;;;;;5096220;28;20511;-36
2021/04/25 08:36:14;;;;;;;4.13;1.92;;;11.30;40.80;;;;;;5095424;28;20032;-36
2021/04/25 08:38:40;;;;;;;7.90;2.03;;;11.40;40.10;;;;;;5095903;28;20035;-37
2021/04/25 08:41:06;;;;;;;3.33;1.45;;;10.50;41.70;;;;;;5095811;28;20028;-36
2021/04/25 08:43:32;;;;;;;6.72;2.80;;;9.40;44.20;;;;;;5094423;28;20020;-36
2021/04/25 08:45:59;;;;;;;7.50;2.78;;;8.80;46.10;;;;;;5094105;28;20020;-36
2021/04/25 08:48:28;;;;;;;7.07;2.22;;;9.00;46.00;;;;;;5095268;28;20085;-36
2021/04/25 08:50:54;;;;;;;3.00;1.63;;;9.20;45.70;;;;;;5095440;28;20036;-36
2021/04/25 08:53:21;;;;;;;7.38;2.08;;;9.10;45.80;;;;;;5095421;28;20035;-37
2021/04/25 08:55:47;;;;;;;5.80;2.53;;;8.80;46.70;;;;;;5095295;28;20055;-37
2021/04/25 08:58:14;;;;;;;2.85;2.10;;;8.70;47.20;;;;;;5095602;28;20491;-37
2021/04/25 09:00:40;;;;;;;4.75;2.15;;;8.70;46.70;;;;;;5095245;28;20032;-37
2021/04/25 09:03:06;;;;;;;7.45;2.15;;;8.40;47.60;;;;;;5095171;28;20534;-37
2021/04/25 09:05:32;;;;;;;9.57;1.98;;;9.10;46.30;;;;;;5095440;28;20032;-37
2021/04/25 09:08:00;;;;;;;11.35;2.85;;;9.80;45.20;;;;;;5093822;28;20016;-37
2021/04/25 09:10:38;;;;;;;4.03;1.73;;;10.10;43.10;;;;;;5095315;28;20103;-37
2021/04/25 09:13:16;;;;;;;8.60;2.42;;;9.80;44.30;;;;;;5095743;28;20048;-37
2021/04/25 09:15:42;;;;;;;3.92;1.52;;;9.80;44.10;;;;;;5095260;28;20484;-37
2021/04/25 09:18:07;;;;;;;6.63;2.08;;;10.60;42.30;;;;;;5095099;28;20031;-37
2021/04/25 09:20:40;;;;;;;4.78;2.15;;;10.10;43.80;;;;;;5093604;28;20124;-37
2021/04/25 09:23:08;;;;;;;10.10;2.08;;;10.30;43.70;;;;;;5095090;28;20016;-37
2021/04/25 09:25:33;;;;;;;2.63;1.92;;;10.90;41.90;;;;;;5094533;28;20054;-37
2021/04/25 09:28:14;;;;;;;8.27;1.95;;;11.20;40.60;;;;;;5093293;28;20062;-37
2021/04/25 09:30:54;;;;;;;5.97;2.05;;;9.90;43.80;;;;;;5095378;28;20044;-37
2021/04/25 09:33:20;;;;;;;3.03;1.80;;;9.50;44.70;;;;;;5094975;28;20027;-37
2021/04/25 09:35:46;;;;;;;5.50;2.17;;;9.60;44.60;;;;;;5094743;28;20405;-37
2021/04/25 09:38:13;;;;;;;7.50;2.42;;;9.80;44.60;;;;;;5094413;28;20020;-37
2021/04/25 09:40:42;;;;;;;4.45;3.38;;;9.50;45.00;;;;;;5094440;28;20054;-37
2021/04/25 09:43:10;;;;;;;5.70;2.17;;;9.20;46.30;;;;;;5094876;28;20024;-37
2021/04/25 09:45:43;;;;;;;5.28;2.35;;;9.00;46.40;;;;;;5094536;28;20024;-37
2021/04/25 09:48:41;;;;;;;6.78;2.63;;;8.60;47.80;;;;;;5094822;28;20024;-37
2021/04/25 09:51:24;;;;;;;10.73;2.78;;;8.80;47.60;;;;;;5093970;28;20456;-38
2021/04/25 09:53:53;;;;;;;2.40;1.63;;;10.40;43.80;;;;;;5094356;28;20020;-37
2021/04/25 09:56:21;;;;;;;9.45;1.98;;;11.10;41.30;;;;;;5094604;28;20392;-41
2021/04/25 09:58:56;;;;;;;8.50;2.05;;;10.00;44.00;;;;;;5092961;28;20020;-37
2021/04/25 10:01:33;;;;;;;3.63;2.25;;;9.90;44.10;;;;;;5092714;28;20028;-37
2021/04/25 10:04:00;;;;;;;12.20;3.08;;;8.90;46.10;;;;;;5094181;28;20059;-36
2021/04/25 10:06:29;;;;;;;6.05;2.33;;;9.00;46.30;;;;;;5094234;28;20028;-37
2021/04/25 10:08:55;;;;;;;4.18;1.85;;;9.30;45.80;;;;;;5094202;28;20028;-36
2021/04/25 10:11:22;;;;;;;6.30;2.13;;;9.30;45.70;;;;;;5093710;28;20020;-36
2021/04/25 10:13:48;;;;;;;4.10;2.30;;;9.20;45.90;;;;;;5094281;28;20028;-36
2021/04/25 10:16:15;;;;;;;8.80;2.55;;;9.10;46.40;;;;;;5093690;28;20361;-36
2021/04/25 10:18:41;;;;;;;6.78;2.60;;;9.50;45.70;;;;;;5093790;28;20032;-36
2021/04/25 10:21:07;;;;;;;5.07;2.53;;;9.80;45.20;;;;;;5093724;28;20464;-37
2021/04/25 10:23:33;;;;;;;5.60;2.17;;;9.70;45.10;;;;;;5093886;28;20138;-37
2021/04/25 10:26:00;;;;;;;12.05;2.75;;;9.80;45.30;;;;;;5093678;28;20103;-37
2021/04/25 10:28:39;;;;;;;4.38;2.47;;;9.90;44.80;;;;;;5093900;28;20081;-36
2021/04/25 10:31:08;;;;;;;5.47;2.05;;;10.80;43.20;;;;;;5092112;28;20051;-36
2021/04/25 10:33:53;;;;;;;5.68;2.65;;;11.20;41.40;;;;;;5093529;28;20021;-37
2021/04/25 10:36:20;;;;;;;6.20;2.10;;;11.30;41.40;;;;;;5093536;28;20443;-37
2021/04/25 10:38:46;;;;;;;5.35;2.00;;;11.30;40.60;;;;;;5093333;28;20028;-38
2021/04/25 10:41:26;;;;;;;5.70;2.47;;;11.10;41.30;;;;;;5093510;28;20024;-36
2021/04/25 10:44:04;;;;;;;7.03;2.33;;;11.40;40.50;;;;;;5091849;28;20024;-36
2021/04/25 10:46:52;;;;;;;2.78;1.73;;;10.30;43.10;;;;;;5093202;28;20024;-36
2021/04/25 10:49:32;;;;;;;5.43;2.47;;;10.30;43.20;;;;;;5092335;28;20082;-37
2021/04/25 10:52:24;;;;;;;7.70;3.20;;;11.20;41.70;;;;;;5092168;28;20024;-36
2021/04/25 10:55:12;;;;;;;8.48;4.55;;;12.50;38.50;;;;;;5093516;28;20353;-37
2021/04/25 10:58:08;;;;;;;9.10;2.55;;;12.60;38.30;;;;;;5093933;28;20020;-36
2021/04/25 11:03:13;;;;;;;6.57;2.00;;;11.80;39.90;;;;;;5093524;28;20455;-37
2021/04/25 11:05:41;;;;;;;9.25;4.18;;;12.00;39.60;;;;;;5091696;28;20468;-36
2021/04/25 11:08:12;;;;;;;11.88;3.35;;;12.50;38.20;;;;;;5093046;28;20012;-37
2021/04/25 11:10:48;;;;;;;11.38;2.70;;;13.00;37.00;;;;;;5092970;28;20031;-36
2021/04/25 11:13:32;;;;;;;3.25;2.15;;;12.40;38.40;;;;;;5091685;28;20027;-36
2021/04/25 11:16:00;;;;;;;3.70;2.60;;;12.80;37.20;;;;;;5093088;28;20384;-36
2021/04/25 11:18:45;;;;;;;5.47;2.33;;;11.90;38.70;;;;;;5093338;28;20123;-36
2021/04/25 11:22:08;;;;;;;9.75;2.88;;;11.80;40.40;;;;;;5093069;28;20021;-36
2021/04/25 11:24:17;;;;;;;7.50;2.90;;;11.30;41.60;;;;;;5095402;28;20056;-36
2021/04/25 11:27:02;;;;;;;9.60;2.60;;;11.10;42.00;;;;;;5093211;28;20026;-36
2021/04/25 11:29:28;;;;;;;7.68;2.67;;;12.90;37.60;;;;;;5093740;28;20035;-37
2021/04/25 11:31:58;;;;;;;11.63;2.67;;;13.50;36.50;;;;;;5092779;28;20024;-37
2021/04/25 11:34:36;;;;;;;6.75;2.40;;;14.10;34.90;;;;;;5091516;28;20078;-36
2021/04/25 11:37:22;;;;;;;6.22;2.17;;;12.90;36.90;;;;;;5092517;28;20424;-36
2021/04/25 11:39:54;;;;;;;6.50;2.08;;;12.80;37.40;;;;;;5093032;28;20127;-36
2021/04/25 11:42:39;;;;;;;6.32;2.65;;;13.10;36.30;;;;;;5093013;28;20047;-37
2021/04/25 11:45:16;;;;;;;7.82;2.30;;;11.80;39.50;;;;;;5091495;28;20027;-37
2021/04/25 11:47:46;;;;;;;8.32;2.40;;;12.50;38.20;;;;;;5093309;28;20028;-37
2021/04/25 11:50:13;;;;;;;7.25;3.78;;;12.90;37.60;;;;;;5092689;28;20135;-37
2021/04/25 11:52:39;;;;;;;5.85;1.92;;;13.30;37.20;;;;;;5091272;28;20040;-37
2021/04/25 11:55:12;;;;;;;7.60;2.28;;;13.30;36.70;;;;;;5092717;28;20073;-37
2021/04/25 11:57:43;;;;;;;5.25;2.60;;;13.20;37.40;;;;;;5091976;28;20482;-36
2021/04/25 12:00:18;;;;;;;11.68;2.10;;;12.40;38.30;;;;;;5093000;28;20434;-36
2021/04/25 12:02:56;;;;;;;9.07;2.10;;;13.10;36.80;;;;;;5092416;28;20028;-36
2021/04/25 12:05:30;;;;;;;8.38;4.07;;;12.50;38.20;;;;;;5092288;28;20141;-36
2021/04/25 12:07:57;;;;;;;8.60;2.20;;;12.10;39.50;;;;;;5092951;28;20032;-37
2021/04/25 12:10:30;;;;;;;5.22;2.38;;;12.00;39.30;;;;;;5092991;28;20028;-37
2021/04/25 12:13:15;;;;;;;8.15;2.30;;;12.70;38.10;;;;;;5095865;28;20040;-38
2021/04/25 12:15:54;;;;;;;4.70;1.80;;;14.00;34.70;;;;;;5094762;28;20043;-38
2021/04/25 12:18:36;;;;;;;5.35;1.92;;;14.20;34.50;;;;;;5096152;28;20074;-37
2021/04/25 12:21:07;;;;;;;5.25;2.25;;;12.30;38.10;;;;;;5096986;28;20036;-39
2021/04/25 12:23:38;;;;;;;16.20;3.20;;;12.50;37.90;;;;;;5096405;28;20012;-36
2021/04/25 12:26:07;;;;;;;;;;;13.30;36.40;;;;;;5097735;28;20516;-36
2021/04/25 12:28:48;;;;;;;2.75;2.13;;;14.20;34.80;;;;;;5095843;28;19904;-37
2021/04/25 12:31:19;;;;;;;8.15;2.60;;;13.40;36.10;;;;;;5095245;28;20027;-37
2021/04/25 12:33:55;;;;;;;3.00;1.75;;;13.00;37.10;;;;;;5095663;28;20073;-37
2021/04/25 12:36:25;;;;;;;6.15;1.92;;;12.80;37.60;;;;;;5095737;28;20376;-37
2021/04/25 12:39:01;;;;;;;3.38;1.60;;;12.60;37.50;;;;;;5094806;28;20084;-37
2021/04/25 12:41:42;;;;;;;10.85;2.38;;;12.70;36.70;;;;;;5095879;28;20028;-37
2021/04/25 12:44:07;;;;;;;4.05;1.83;;;13.20;35.70;;;;;;5095992;28;20476;-38
2021/04/25 12:46:33;;;;;;;3.45;1.77;;;13.90;34.80;;;;;;5095284;28;20047;-37
2021/04/25 12:49:11;;;;;;;4.93;2.05;;;15.30;32.80;;;;;;5095042;28;20052;-37
2021/04/25 12:51:43;;;;;;;8.27;3.05;;;15.50;32.40;;;;;;5094085;28;20024;-36
2021/04/25 12:54:36;;;;;;;11.13;4.35;;;15.50;32.90;;;;;;5095532;28;20020;-37
2021/04/25 12:57:02;;;;;;;7.90;2.40;;;14.90;33.30;;;;;;5095216;28;20093;-36
2021/04/25 12:59:32;;;;;;;5.60;2.00;;;13.00;37.40;;;;;;5094989;28;20028;-36